Time;durP1;ratioP1;P1;durP2;ratioP2;P2;SDS_P1;SDS_P2;PMS_P1;PMS_P2;Temp;Humidity;BMP_temperature;BMP_pressure;BME280_temperature;BME280_humidity;BME280_pressure;Samples;Min_cycle;Max_cycle;Signal;HPM_P1;HPM_P2
2024/01/11 00:00:16;;;;;;;41.80;25.07;;;0.30;92.70;;;;;;4891981;29;20522;-60
2024/01/11 00:02:42;;;;;;;35.93;22.57;;;0.20;93.00;;;;;;4869647;29;20511;-59
2024/01/11 00:05:08;;;;;;;33.97;23.30;;;0.20;93.20;;;;;;4881332;29;20782;-59
2024/01/11 00:07:35;;;;;;;42.33;23.77;;;0.20;93.10;;;;;;4894683;29;20183;-59
2024/01/11 00:10:02;;;;;;;38.38;22.63;;;0.10;93.30;;;;;;4874285;29;20652;-59
2024/01/11 00:12:28;;;;;;;36.78;22.38;;;0.10;94.00;;;;;;4885054;29;20215;-60
2024/01/11 00:14:54;;;;;;;37.27;23.67;;;0.10;94.30;;;;;;4888125;29;20211;-60
2024/01/11 00:17:19;;;;;;;39.63;22.27;;;0.10;94.50;;;;;;4881953;29;20219;-60
2024/01/11 00:19:45;;;;;;;35.90;22.10;;;0.20;94.70;;;;;;4895294;29;20299;-60
2024/01/11 00:22:11;;;;;;;33.83;22.37;;;0.20;94.40;;;;;;4882317;29;20219;-59
2024/01/11 00:24:37;;;;;;;38.77;22.63;;;0.20;94.30;;;;;;4879917;29;20748;-60
2024/01/11 00:27:02;;;;;;;43.97;21.17;;;0.40;94.50;;;;;;4887160;29;20248;-59
2024/01/11 00:29:28;;;;;;;39.83;23.00;;;0.40;94.10;;;;;;4891156;29;20551;-59
2024/01/11 00:31:55;;;;;;;31.60;20.77;;;0.50;94.10;;;;;;4867728;29;20488;-60
2024/01/11 00:34:21;;;;;;;40.08;21.65;;;0.40;93.50;;;;;;4879682;29;20448;-59
2024/01/11 00:36:47;;;;;;;32.58;20.95;;;0.30;93.80;;;;;;4880069;29;20207;-59
2024/01/11 00:39:13;;;;;;;36.33;20.13;;;0.30;93.50;;;;;;4893086;29;20184;-59
2024/01/11 00:41:39;;;;;;;31.00;20.87;;;0.30;92.90;;;;;;4875555;29;20183;-60
2024/01/11 00:44:04;;;;;;;33.97;21.60;;;0.20;92.80;;;;;;4877728;29;20179;-59
2024/01/11 00:46:30;;;;;;;32.03;19.37;;;0.30;92.60;;;;;;4892007;29;20171;-60
2024/01/11 00:48:56;;;;;;;29.23;19.03;;;0.20;92.50;;;;;;4888241;29;20431;-59
2024/01/11 00:51:21;;;;;;;34.80;21.27;;;0.20;92.20;;;;;;4880378;29;20199;-59
2024/01/11 00:53:47;;;;;;;34.17;20.00;;;0.20;92.80;;;;;;4879583;29;20660;-59
2024/01/11 00:56:19;;;;;;;32.97;20.90;;;0.20;92.60;;;;;;4884879;29;20758;-60
2024/01/11 00:58:46;;;;;;;39.35;21.77;;;0.10;93.20;;;;;;4891779;29;20264;-59
2024/01/11 01:01:12;;;;;;;34.63;20.00;;;0.00;93.10;;;;;;4865806;29;20211;-60
2024/01/11 01:03:38;;;;;;;31.00;20.02;;;0.00;93.40;;;;;;4889003;29;20244;-60
2024/01/11 01:06:05;;;;;;;35.38;20.45;;;-0.10;92.80;;;;;;4875521;29;20191;-60
2024/01/11 01:08:30;;;;;;;28.80;18.88;;;0.00;92.80;;;;;;4878375;29;20533;-60
2024/01/11 01:10:56;;;;;;;38.03;22.30;;;0.00;93.10;;;;;;4884539;29;20217;-60
2024/01/11 01:13:22;;;;;;;32.90;20.60;;;-0.10;93.40;;;;;;4883836;29;20463;-60
2024/01/11 01:15:48;;;;;;;32.30;19.23;;;-0.10;93.40;;;;;;4884417;29;20182;-59
2024/01/11 01:18:14;;;;;;;30.70;19.73;;;-0.10;93.00;;;;;;4895494;29;20651;-59
2024/01/11 01:20:40;;;;;;;30.33;20.03;;;-0.10;93.10;;;;;;4879516;29;20460;-60
2024/01/11 01:23:05;;;;;;;27.23;18.60;;;-0.10;92.90;;;;;;4886019;29;20429;-59
2024/01/11 01:25:32;;;;;;;28.20;18.90;;;-0.10;93.10;;;;;;4893323;29;20440;-60
2024/01/11 01:28:00;;;;;;;30.35;19.75;;;-0.10;92.90;;;;;;4894166;29;20636;-60
2024/01/11 01:30:26;;;;;;;31.30;18.92;;;-0.10;93.20;;;;;;4880951;29;20312;-60
2024/01/11 01:32:52;;;;;;;37.30;19.58;;;-0.20;93.70;;;;;;4884277;29;21994;-60
2024/01/11 01:35:18;;;;;;;30.97;18.63;;;-0.20;93.60;;;;;;4897010;29;20265;-59
2024/01/11 01:37:44;;;;;;;28.40;18.50;;;-0.20;93.40;;;;;;4888274;29;20435;-60
2024/01/11 01:40:10;;;;;;;25.50;18.03;;;-0.20;93.20;;;;;;4894949;29;20668;-60
2024/01/11 01:42:40;;;;;;;30.02;18.77;;;-0.20;93.20;;;;;;4877810;29;20439;-59
2024/01/11 01:45:06;;;;;;;28.10;18.33;;;-0.30;93.60;;;;;;4878827;29;20288;-59
2024/01/11 01:47:32;;;;;;;33.08;18.45;;;-0.30;93.70;;;;;;4890870;29;20270;-60
2024/01/11 01:49:59;;;;;;;30.83;18.27;;;-0.30;93.70;;;;;;4887956;29;20693;-59
2024/01/11 01:52:25;;;;;;;31.58;19.30;;;-0.30;93.80;;;;;;4878039;29;20428;-60
2024/01/11 01:54:51;;;;;;;25.20;18.08;;;-0.20;93.40;;;;;;4878062;29;20184;-59
2024/01/11 01:57:18;;;;;;;30.35;18.73;;;-0.40;93.30;;;;;;4894976;29;20235;-59
2024/01/11 01:59:45;;;;;;;26.80;18.63;;;-0.30;93.80;;;;;;4887343;29;20291;-59
2024/01/11 02:02:12;;;;;;;28.02;19.02;;;-0.30;93.90;;;;;;4887082;29;20187;-59
2024/01/11 02:04:38;;;;;;;29.85;19.77;;;-0.30;93.70;;;;;;4886485;29;20538;-60
2024/01/11 02:07:06;;;;;;;33.88;20.13;;;-0.30;93.90;;;;;;4868454;29;20179;-59
2024/01/11 02:09:33;;;;;;;29.90;18.77;;;-0.30;93.90;;;;;;4888943;29;20188;-60
2024/01/11 02:12:00;;;;;;;31.10;17.80;;;-0.30;93.80;;;;;;4886070;29;20262;-59
2024/01/11 02:14:26;;;;;;;30.85;19.83;;;-0.30;93.20;;;;;;4895079;29;20719;-60
2024/01/11 02:16:52;;;;;;;29.75;18.10;;;-0.30;92.50;;;;;;4867072;29;20190;-60
2024/01/11 02:19:20;;;;;;;32.13;20.37;;;-0.40;92.50;;;;;;4875875;29;20267;-60
2024/01/11 02:21:48;;;;;;;27.02;18.50;;;-0.50;92.50;;;;;;4889364;29;20180;-60
2024/01/11 02:24:14;;;;;;;23.40;16.83;;;-0.40;92.60;;;;;;4895591;29;20179;-59
2024/01/11 02:27:15;;;;;;;26.67;17.87;;;-0.50;92.90;;;;;;4888272;29;20266;-60
2024/01/11 02:29:41;;;;;;;30.55;17.42;;;-0.50;92.80;;;;;;4815581;29;20204;-60
2024/01/11 02:32:08;;;;;;;28.90;17.50;;;-0.50;92.70;;;;;;4857808;29;20196;-59
2024/01/11 02:34:34;;;;;;;34.47;19.27;;;-0.60;92.60;;;;;;4895860;29;20184;-59
2024/01/11 02:37:00;;;;;;;34.70;19.63;;;-0.60;92.70;;;;;;4882548;29;20244;-59
2024/01/11 02:39:26;;;;;;;29.33;19.03;;;-0.60;93.20;;;;;;4868974;29;20180;-59
2024/01/11 02:41:55;;;;;;;28.20;17.75;;;-0.50;93.30;;;;;;4893922;29;20428;-58
2024/01/11 02:44:21;;;;;;;28.50;17.20;;;-0.60;93.40;;;;;;4873098;29;20552;-59
2024/01/11 02:46:47;;;;;;;26.47;16.63;;;-0.50;93.60;;;;;;4879909;29;20184;-59
2024/01/11 02:49:12;;;;;;;28.07;18.47;;;-0.50;93.20;;;;;;4881535;29;20632;-59
2024/01/11 02:51:38;;;;;;;27.50;18.07;;;-0.60;92.70;;;;;;4894342;29;20191;-59
2024/01/11 02:54:04;;;;;;;30.60;18.90;;;-0.60;92.90;;;;;;4881935;29;20235;-59
2024/01/11 02:56:30;;;;;;;36.00;19.30;;;-0.60;92.90;;;;;;4883932;29;20460;-59
2024/01/11 02:58:55;;;;;;;27.33;17.20;;;-0.70;92.60;;;;;;4883908;29;20188;-58
2024/01/11 03:01:21;;;;;;;29.17;16.87;;;-0.70;92.40;;;;;;4881306;29;20203;-59
2024/01/11 03:03:47;;;;;;;34.77;19.87;;;-0.70;92.40;;;;;;4894782;29;20546;-59
2024/01/11 03:06:13;;;;;;;32.87;18.50;;;-0.70;92.60;;;;;;4895726;29;20235;-59
2024/01/11 03:08:39;;;;;;;29.33;18.23;;;-0.60;93.00;;;;;;4891417;29;20191;-59
2024/01/11 03:11:05;;;;;;;30.90;18.23;;;-0.60;93.50;;;;;;4896199;29;20195;-59
2024/01/11 03:13:31;;;;;;;29.63;18.37;;;-0.70;93.90;;;;;;4881362;29;20327;-59
2024/01/11 03:15:57;;;;;;;27.15;18.02;;;-0.60;94.30;;;;;;4878253;29;20499;-59
2024/01/11 03:18:23;;;;;;;30.37;18.80;;;-0.60;94.40;;;;;;4881883;29;20295;-59
2024/01/11 03:20:49;;;;;;;34.20;19.23;;;-0.50;94.20;;;;;;4883977;29;20794;-59
2024/01/11 03:23:14;;;;;;;27.93;17.87;;;-0.60;93.80;;;;;;4863285;29;20436;-59
2024/01/11 03:25:40;;;;;;;27.43;18.37;;;-0.60;94.00;;;;;;4880328;29;20184;-59
2024/01/11 03:28:06;;;;;;;27.83;18.63;;;-0.60;94.00;;;;;;4881805;29;20627;-59
2024/01/11 03:30:32;;;;;;;28.20;18.60;;;-0.60;93.90;;;;;;4894249;29;20223;-60
2024/01/11 03:32:57;;;;;;;29.42;18.50;;;-0.60;93.50;;;;;;4890304;29;20267;-59
2024/01/11 03:35:23;;;;;;;30.23;19.53;;;-0.70;93.20;;;;;;4889117;29;20215;-59
2024/01/11 03:37:49;;;;;;;31.60;19.30;;;-0.70;93.50;;;;;;4895241;29;20195;-59
2024/01/11 03:40:15;;;;;;;30.33;19.53;;;-0.70;93.80;;;;;;4892956;29;20206;-59
2024/01/11 03:42:42;;;;;;;30.97;18.83;;;-0.70;93.30;;;;;;4897379;29;20206;-59
2024/01/11 03:45:08;;;;;;;31.17;18.95;;;-0.80;92.70;;;;;;4881652;29;20195;-59
2024/01/11 03:47:34;;;;;;;28.90;18.40;;;-0.80;92.80;;;;;;4897586;29;20278;-60
2024/01/11 03:50:00;;;;;;;33.83;19.50;;;-0.80;93.20;;;;;;4898369;29;20266;-59
2024/01/11 03:52:25;;;;;;;24.67;18.27;;;-0.80;93.40;;;;;;4898442;29;20198;-59
2024/01/11 03:54:51;;;;;;;29.30;19.77;;;-0.80;93.10;;;;;;4893675;29;20188;-59
2024/01/11 03:57:17;;;;;;;34.17;19.80;;;-0.80;93.40;;;;;;4868958;29;20233;-58
2024/01/11 03:59:43;;;;;;;30.60;18.63;;;-0.80;93.70;;;;;;4896059;29;20215;-59
2024/01/11 04:02:09;;;;;;;32.23;20.70;;;-0.80;93.50;;;;;;4897219;29;20541;-59
2024/01/11 04:04:35;;;;;;;28.20;17.83;;;-0.90;93.70;;;;;;4879583;29;20185;-59
2024/01/11 04:07:00;;;;;;;30.30;18.80;;;-0.80;93.40;;;;;;4887177;29;20179;-59
2024/01/11 04:09:26;;;;;;;34.17;18.43;;;-0.90;93.10;;;;;;4883870;29;20237;-59
2024/01/11 04:11:52;;;;;;;28.30;18.83;;;-0.90;93.10;;;;;;4889450;29;20262;-59
2024/01/11 04:14:18;;;;;;;30.80;19.30;;;-0.90;92.90;;;;;;4895568;29;20167;-59
2024/01/11 04:16:44;;;;;;;32.30;18.20;;;-0.90;92.90;;;;;;4871522;29;20183;-58
2024/01/11 04:19:10;;;;;;;41.33;19.80;;;-0.90;92.70;;;;;;4896859;29;20231;-59
2024/01/11 04:21:38;;;;;;;31.20;19.63;;;-0.90;92.90;;;;;;4887360;29;20254;-59
2024/01/11 04:24:06;;;;;;;30.98;17.67;;;-0.90;93.10;;;;;;4876550;29;20274;-58
2024/01/11 04:26:31;;;;;;;35.25;19.23;;;-0.80;93.70;;;;;;4896006;29;20591;-59
2024/01/11 04:28:59;;;;;;;29.60;18.63;;;-0.90;93.20;;;;;;4895339;29;20190;-58
2024/01/11 04:31:25;;;;;;;28.48;17.73;;;-0.90;93.00;;;;;;4894187;29;20439;-59
2024/01/11 04:33:51;;;;;;;34.05;18.20;;;-0.90;93.10;;;;;;4894100;29;20213;-59
2024/01/11 04:36:17;;;;;;;29.03;18.97;;;-0.90;93.10;;;;;;4887530;29;20589;-59
2024/01/11 04:38:44;;;;;;;31.57;19.67;;;-0.90;92.90;;;;;;4861469;29;20460;-59
2024/01/11 04:41:14;;;;;;;28.15;18.05;;;-0.90;92.90;;;;;;4865607;29;20460;-58
2024/01/11 04:43:44;;;;;;;34.95;19.20;;;-0.90;93.00;;;;;;4868388;29;20184;-59
2024/01/11 04:46:16;;;;;;;26.83;18.10;;;-0.90;93.00;;;;;;4881835;29;20180;-59
2024/01/11 04:48:43;;;;;;;31.10;19.88;;;-1.00;92.80;;;;;;4878063;29;20167;-59
2024/01/11 04:51:09;;;;;;;32.65;18.65;;;-1.00;92.60;;;;;;4867117;29;20600;-58
2024/01/11 04:53:41;;;;;;;33.17;19.70;;;-1.00;93.10;;;;;;4896997;29;20304;-59
2024/01/11 04:56:09;;;;;;;36.83;19.90;;;-1.00;93.60;;;;;;4881889;29;20235;-59
2024/01/11 04:58:40;;;;;;;35.80;19.55;;;-1.00;93.80;;;;;;4894408;29;20176;-59
2024/01/11 05:01:06;;;;;;;30.48;19.23;;;-1.00;94.10;;;;;;4896224;29;20360;-59
2024/01/11 05:03:32;;;;;;;26.67;19.42;;;-1.00;94.30;;;;;;4886040;29;20633;-58
2024/01/11 05:05:59;;;;;;;26.35;19.20;;;-1.00;93.80;;;;;;4877893;29;20195;-59
2024/01/11 05:08:28;;;;;;;33.83;20.35;;;-1.00;93.30;;;;;;4892440;29;20666;-59
2024/01/11 05:10:54;;;;;;;29.60;16.85;;;-1.00;93.40;;;;;;4879914;29;20187;-59
2024/01/11 05:13:20;;;;;;;31.30;19.23;;;-0.90;93.50;;;;;;4864622;29;20202;-59
2024/01/11 05:15:46;;;;;;;36.10;20.20;;;-1.00;93.70;;;;;;4894317;29;20519;-60
2024/01/11 05:18:12;;;;;;;28.73;21.63;;;-1.10;93.60;;;;;;4895728;29;20431;-59
2024/01/11 05:20:38;;;;;;;35.50;20.17;;;-1.10;93.30;;;;;;4891798;29;20212;-60
2024/01/11 05:23:04;;;;;;;35.00;18.73;;;-1.10;93.30;;;;;;4861662;29;20648;-60
2024/01/11 05:25:33;;;;;;;34.20;19.57;;;-1.20;93.50;;;;;;4880207;29;20178;-60
2024/01/11 05:28:03;;;;;;;27.08;18.63;;;-1.10;93.20;;;;;;4882317;29;20198;-60
2024/01/11 05:30:29;;;;;;;29.17;19.98;;;-1.20;92.60;;;;;;4889379;29;20183;-63
2024/01/11 05:32:55;;;;;;;38.80;23.67;;;-1.10;92.90;;;;;;4893197;29;20238;-59
2024/01/11 05:35:23;;;;;;;33.90;20.23;;;-1.10;93.00;;;;;;4870754;29;20187;-59
2024/01/11 05:37:52;;;;;;;34.35;21.25;;;-1.10;93.00;;;;;;4860877;29;20421;-59
2024/01/11 05:40:18;;;;;;;37.10;21.42;;;-1.10;93.10;;;;;;4889770;29;20633;-59
2024/01/11 05:42:43;;;;;;;33.53;20.67;;;-1.20;93.10;;;;;;4879047;29;20274;-59
2024/01/11 05:45:09;;;;;;;29.07;18.00;;;-1.20;93.20;;;;;;4890793;29;20199;-59
2024/01/11 05:47:35;;;;;;;33.23;20.50;;;-1.20;93.10;;;;;;4885099;29;20210;-59
2024/01/11 05:50:00;;;;;;;28.80;19.50;;;-1.30;93.60;;;;;;4877356;29;20199;-59
2024/01/11 05:52:26;;;;;;;30.00;19.90;;;-1.20;94.20;;;;;;4878013;29;20589;-59
2024/01/11 05:54:52;;;;;;;26.80;21.00;;;-1.20;94.80;;;;;;4882036;29;20175;-59
2024/01/11 05:57:17;;;;;;;29.27;19.70;;;-1.30;95.00;;;;;;4900044;29;20227;-59
2024/01/11 05:59:45;;;;;;;32.53;20.17;;;-1.50;95.60;;;;;;4892519;29;20206;-59
2024/01/11 06:02:11;;;;;;;34.38;20.00;;;-1.50;96.40;;;;;;4888443;29;20188;-59
2024/01/11 06:04:37;;;;;;;37.25;20.92;;;-1.50;96.80;;;;;;4894404;29;20198;-59
2024/01/11 06:07:03;;;;;;;33.37;20.40;;;-1.50;97.00;;;;;;4897775;29;20628;-59
2024/01/11 06:09:28;;;;;;;35.33;21.07;;;-1.40;96.90;;;;;;4894134;29;20184;-59
2024/01/11 06:11:54;;;;;;;32.67;20.03;;;-1.30;96.70;;;;;;4895484;29;20416;-59
2024/01/11 06:14:20;;;;;;;32.60;20.07;;;-1.30;96.60;;;;;;4899898;29;20202;-59
2024/01/11 06:16:46;;;;;;;36.67;20.13;;;-1.30;96.10;;;;;;4868630;29;20172;-59
2024/01/11 06:19:11;;;;;;;43.23;20.17;;;-1.30;95.50;;;;;;4881685;29;20905;-59
2024/01/11 06:21:37;;;;;;;32.37;20.00;;;-1.20;94.90;;;;;;4881261;29;20243;-59
2024/01/11 06:24:03;;;;;;;40.00;22.30;;;-1.20;94.60;;;;;;4880238;29;20184;-59
2024/01/11 06:26:30;;;;;;;32.27;20.07;;;-1.20;94.50;;;;;;4895981;29;20262;-59
2024/01/11 06:28:56;;;;;;;33.00;18.20;;;-1.10;94.50;;;;;;4893906;29;20438;-59
2024/01/11 06:31:21;;;;;;;25.27;18.80;;;-1.10;94.40;;;;;;4896743;29;20277;-58
2024/01/11 06:33:47;;;;;;;32.07;21.40;;;-1.10;94.00;;;;;;4897925;29;20436;-59
2024/01/11 06:36:13;;;;;;;30.50;20.27;;;-1.00;94.10;;;;;;4899760;29;20838;-59
2024/01/11 06:38:39;;;;;;;30.97;21.53;;;-1.10;93.90;;;;;;4897933;29;20624;-59
2024/01/11 06:41:04;;;;;;;32.57;22.37;;;-1.30;93.80;;;;;;4883881;29;20208;-59
2024/01/11 06:43:30;;;;;;;30.13;20.07;;;-1.10;93.90;;;;;;4881484;29;20247;-59
2024/01/11 06:45:56;;;;;;;34.77;21.40;;;-1.10;94.30;;;;;;4869891;29;20194;-59
2024/01/11 06:48:22;;;;;;;40.37;20.53;;;-1.40;95.40;;;;;;4888697;29;20242;-59
2024/01/11 06:50:47;;;;;;;35.17;19.63;;;-1.50;95.90;;;;;;4892784;29;20271;-59
2024/01/11 06:53:13;;;;;;;31.40;21.77;;;-1.40;95.80;;;;;;4899338;29;20602;-59
2024/01/11 06:55:40;;;;;;;34.10;22.10;;;-1.50;96.10;;;;;;4865132;29;20459;-58
2024/01/11 06:58:06;;;;;;;32.67;21.40;;;-1.50;96.30;;;;;;4895353;29;20176;-58
2024/01/11 07:00:32;;;;;;;32.17;21.87;;;-1.40;96.40;;;;;;4884217;29;20211;-59
2024/01/11 07:02:58;;;;;;;38.63;21.87;;;-1.40;96.40;;;;;;4880643;29;20240;-59
2024/01/11 07:05:23;;;;;;;34.37;21.87;;;-1.40;96.40;;;;;;4897763;29;20202;-59
2024/01/11 07:07:49;;;;;;;39.33;22.80;;;-1.30;96.10;;;;;;4896755;29;20188;-59
2024/01/11 07:10:15;;;;;;;32.87;22.00;;;-1.30;95.60;;;;;;4878095;29;20217;-59
2024/01/11 07:12:42;;;;;;;28.17;19.97;;;-1.20;95.30;;;;;;4889737;29;20184;-59
2024/01/11 07:15:09;;;;;;;37.85;24.17;;;-1.20;94.80;;;;;;4893182;29;20188;-59
2024/01/11 07:17:35;;;;;;;37.05;21.63;;;-1.20;94.80;;;;;;4898965;29;20547;-59
2024/01/11 07:20:01;;;;;;;35.53;21.42;;;-1.20;94.60;;;;;;4897935;29;20294;-59
2024/01/11 07:22:29;;;;;;;32.05;21.75;;;-1.10;94.50;;;;;;4898451;29;20656;-59
2024/01/11 07:24:54;;;;;;;33.30;22.47;;;-1.20;94.00;;;;;;4898154;29;20186;-59
2024/01/11 07:27:20;;;;;;;38.63;23.30;;;-1.20;94.10;;;;;;4897700;29;20953;-59
2024/01/11 07:29:46;;;;;;;34.23;23.50;;;-1.10;94.40;;;;;;4898261;29;20190;-60
2024/01/11 07:32:12;;;;;;;31.63;21.80;;;-1.20;94.40;;;;;;4898839;29;20591;-59
2024/01/11 07:34:37;;;;;;;34.33;21.43;;;-1.30;94.80;;;;;;4898040;29;20532;-60
2024/01/11 07:37:03;;;;;;;38.07;21.60;;;-1.30;95.00;;;;;;4873932;29;20184;-59
2024/01/11 07:39:30;;;;;;;30.50;19.10;;;-1.30;95.20;;;;;;4890961;29;20176;-59
2024/01/11 07:41:56;;;;;;;35.10;21.45;;;-1.20;95.50;;;;;;4895731;29;20197;-59
2024/01/11 07:44:22;;;;;;;38.13;22.23;;;-1.20;95.40;;;;;;4895677;29;20183;-59
2024/01/11 07:46:48;;;;;;;45.00;23.00;;;-1.10;94.80;;;;;;4887590;29;20423;-60
2024/01/11 07:49:13;;;;;;;32.47;21.40;;;-1.10;94.20;;;;;;4852644;29;20658;-59
2024/01/11 07:51:39;;;;;;;36.60;20.47;;;-1.00;94.00;;;;;;4897119;29;20187;-59
2024/01/11 07:54:05;;;;;;;35.53;21.50;;;-1.00;94.20;;;;;;4893813;29;20199;-59
2024/01/11 07:56:31;;;;;;;33.00;21.50;;;-1.00;94.00;;;;;;4896408;29;20239;-59
2024/01/11 07:58:56;;;;;;;32.67;22.10;;;-1.00;93.90;;;;;;4880651;29;20599;-59
2024/01/11 08:01:22;;;;;;;30.63;20.90;;;-1.00;93.90;;;;;;4897669;29;20199;-59
2024/01/11 08:03:51;;;;;;;32.13;20.00;;;-1.00;94.00;;;;;;4897254;29;20266;-60
2024/01/11 08:06:17;;;;;;;31.02;22.33;;;-1.00;93.90;;;;;;4897915;29;20176;-59
2024/01/11 08:08:43;;;;;;;41.60;20.92;;;-1.00;93.70;;;;;;4897816;29;20633;-59
2024/01/11 08:11:12;;;;;;;31.03;20.87;;;-1.00;94.10;;;;;;4897113;29;20179;-60
2024/01/11 08:13:38;;;;;;;26.05;17.73;;;-1.00;94.10;;;;;;4889525;29;20448;-60
2024/01/11 08:16:04;;;;;;;34.55;21.50;;;-0.90;94.40;;;;;;4884338;29;20632;-59
2024/01/11 08:18:33;;;;;;;30.15;20.00;;;-1.00;94.20;;;;;;4876189;29;20220;-59
2024/01/11 08:20:59;;;;;;;34.00;21.05;;;-1.00;94.60;;;;;;4896929;29;20203;-59
2024/01/11 08:23:24;;;;;;;32.47;22.03;;;-0.90;95.00;;;;;;4897470;29;20201;-60
2024/01/11 08:25:52;;;;;;;37.33;20.53;;;-1.10;95.50;;;;;;4893813;29;20551;-60
2024/01/11 08:28:18;;;;;;;32.53;20.05;;;-1.10;96.30;;;;;;4888168;29;20682;-59
2024/01/11 08:30:44;;;;;;;40.63;23.02;;;-1.10;96.70;;;;;;4864520;29;20190;-59
2024/01/11 08:33:10;;;;;;;31.57;19.73;;;-1.10;96.90;;;;;;4892018;29;20191;-60
2024/01/11 08:35:36;;;;;;;24.13;17.47;;;-1.10;96.70;;;;;;4881519;29;20179;-60
2024/01/11 08:38:02;;;;;;;34.28;27.90;;;-0.90;99.90;;;;;;4887101;29;20438;-60
2024/01/11 08:40:28;;;;;;;38.70;24.38;;;0.80;99.90;;;;;;4883332;29;20238;-61
2024/01/11 08:42:54;;;;;;;36.90;29.93;;;1.80;99.90;;;;;;4882226;29;20620;-61
2024/01/11 08:45:22;;;;;;;35.13;26.10;;;2.90;99.90;;;;;;4891080;29;20433;-61
2024/01/11 08:47:48;;;;;;;34.88;24.40;;;4.10;99.90;;;;;;4892946;29;20182;-61
2024/01/11 08:50:14;;;;;;;30.75;22.70;;;4.90;99.90;;;;;;4864408;29;20183;-61
2024/01/11 08:52:41;;;;;;;30.45;22.30;;;5.50;99.90;;;;;;4890859;29;20184;-61
2024/01/11 08:55:07;;;;;;;34.97;24.98;;;5.90;99.90;;;;;;4879330;29;20191;-61
2024/01/11 08:57:35;;;;;;;32.80;23.80;;;6.60;99.90;;;;;;4884062;29;20274;-61
2024/01/11 09:00:02;;;;;;;34.33;24.23;;;7.20;99.90;;;;;;4886781;29;20220;-61
2024/01/11 09:02:27;;;;;;;35.30;26.73;;;7.60;95.30;;;;;;4880329;29;20852;-61
2024/01/11 09:04:53;;;;;;;34.83;24.47;;;8.40;97.40;;;;;;4892171;29;20448;-61
2024/01/11 09:07:19;;;;;;;30.30;25.60;;;9.20;95.50;;;;;;4876971;29;20187;-61
2024/01/11 09:09:45;;;;;;;32.57;23.07;;;10.30;92.10;;;;;;4884189;29;20186;-61
2024/01/11 09:12:11;;;;;;;31.37;25.23;;;11.60;82.20;;;;;;4887947;29;20415;-61
2024/01/11 09:14:37;;;;;;;29.67;24.90;;;12.80;75.30;;;;;;4892048;29;20904;-62
2024/01/11 09:17:06;;;;;;;29.33;23.70;;;13.90;62.60;;;;;;4895943;29;20425;-61
2024/01/11 09:19:33;;;;;;;29.33;24.63;;;14.80;63.80;;;;;;4893545;29;20179;-61
2024/01/11 09:21:59;;;;;;;29.57;25.03;;;15.60;58.20;;;;;;4875302;29;20478;-61
2024/01/11 09:24:25;;;;;;;32.13;25.27;;;16.10;56.60;;;;;;4892546;29;20810;-61
2024/01/11 09:26:51;;;;;;;32.40;28.87;;;16.50;56.50;;;;;;4896358;29;20415;-61
2024/01/11 09:29:17;;;;;;;62.07;46.50;;;16.80;55.00;;;;;;4898002;29;20415;-61
2024/01/11 09:31:43;;;;;;;78.13;58.33;;;17.10;51.20;;;;;;4897347;29;20218;-61
2024/01/11 09:34:09;;;;;;;29.80;26.07;;;17.60;51.80;;;;;;4883875;29;20670;-61
2024/01/11 09:36:34;;;;;;;27.97;24.97;;;18.20;50.10;;;;;;4889315;29;20179;-62
2024/01/11 09:39:00;;;;;;;28.20;24.90;;;19.00;48.50;;;;;;4877853;29;20270;-60
2024/01/11 09:41:27;;;;;;;29.60;26.57;;;19.70;42.30;;;;;;4883001;29;20206;-59
2024/01/11 09:43:57;;;;;;;29.80;26.90;;;19.90;38.20;;;;;;4890623;29;20191;-61
2024/01/11 09:46:24;;;;;;;30.07;26.90;;;20.00;35.40;;;;;;4894901;29;20764;-59
2024/01/11 09:48:51;;;;;;;30.97;28.00;;;19.90;34.00;;;;;;4897268;29;20439;-59
2024/01/11 09:51:17;;;;;;;33.53;30.13;;;19.70;33.60;;;;;;4899457;29;20431;-59
2024/01/11 09:53:43;;;;;;;29.97;26.77;;;19.40;33.00;;;;;;4892760;29;20427;-59
2024/01/11 09:56:10;;;;;;;29.57;26.37;;;18.90;32.90;;;;;;4899954;29;20455;-59
2024/01/11 09:58:36;;;;;;;33.10;27.30;;;18.30;33.30;;;;;;4884394;29;20471;-59
2024/01/11 10:01:07;;;;;;;36.67;32.80;;;17.80;34.20;;;;;;4900026;29;20508;-59
2024/01/11 10:03:33;;;;;;;36.63;32.60;;;17.20;35.10;;;;;;4901342;29;20490;-59
2024/01/11 10:06:01;;;;;;;38.60;33.60;;;16.60;35.40;;;;;;4900273;29;20495;-59
2024/01/11 10:08:29;;;;;;;38.10;29.40;;;16.10;35.90;;;;;;4884395;29;20175;-59
2024/01/11 10:10:55;;;;;;;31.70;27.33;;;15.70;36.10;;;;;;4900308;29;20426;-59
2024/01/11 10:13:30;;;;;;;31.13;26.37;;;15.60;36.80;;;;;;4884065;29;20416;-59
2024/01/11 10:16:05;;;;;;;32.13;26.77;;;15.50;37.10;;;;;;4900393;29;20430;-59
2024/01/11 10:18:31;;;;;;;31.03;26.57;;;15.10;37.40;;;;;;4901022;29;20782;-59
2024/01/11 10:20:57;;;;;;;28.33;25.30;;;15.00;37.40;;;;;;4900214;29;20488;-59
2024/01/11 10:23:23;;;;;;;30.33;26.37;;;14.50;37.50;;;;;;4899812;29;20183;-59
2024/01/11 10:25:49;;;;;;;34.27;28.60;;;13.90;38.20;;;;;;4900506;29;20474;-59
2024/01/11 10:28:16;;;;;;;31.47;25.57;;;13.30;39.00;;;;;;4882995;29;20184;-59
2024/01/11 10:30:45;;;;;;;31.97;25.87;;;13.00;40.40;;;;;;4900348;29;20445;-59
2024/01/11 10:33:11;;;;;;;31.83;27.07;;;12.70;41.30;;;;;;4899652;29;20421;-59
2024/01/11 10:35:36;;;;;;;28.80;25.53;;;12.40;41.80;;;;;;4900382;29;20426;-59
2024/01/11 10:38:09;;;;;;;32.60;25.80;;;12.20;43.00;;;;;;4899569;29;20179;-59
2024/01/11 10:40:35;;;;;;;30.00;24.70;;;11.90;42.80;;;;;;4899710;29;20196;-59
2024/01/11 10:43:02;;;;;;;31.50;26.00;;;11.50;43.20;;;;;;4899420;29;20424;-59
2024/01/11 10:45:29;;;;;;;30.63;25.03;;;11.10;44.20;;;;;;4899980;29;20902;-58
2024/01/11 10:48:01;;;;;;;29.27;25.97;;;10.80;44.90;;;;;;4882611;29;20418;-59
2024/01/11 10:50:33;;;;;;;37.80;25.23;;;10.50;45.70;;;;;;4883368;29;20751;-59
2024/01/11 10:53:11;;;;;;;30.43;24.20;;;10.30;46.30;;;;;;4897408;29;20429;-58
2024/01/11 10:55:37;;;;;;;32.40;25.13;;;10.10;47.00;;;;;;4899182;29;20487;-59
2024/01/11 10:58:04;;;;;;;32.33;25.40;;;9.80;48.50;;;;;;4898991;29;20404;-58
2024/01/11 11:00:31;;;;;;;30.93;25.83;;;9.60;49.00;;;;;;4899436;29;20548;-58
2024/01/11 11:03:02;;;;;;;35.37;26.17;;;9.50;49.60;;;;;;4899341;29;20418;-59
2024/01/11 11:05:31;;;;;;;29.87;24.03;;;9.40;49.70;;;;;;4899879;29;20403;-58
2024/01/11 11:08:01;;;;;;;28.40;24.27;;;9.20;49.60;;;;;;4882476;29;20429;-58
2024/01/11 11:10:28;;;;;;;27.90;22.60;;;9.00;49.40;;;;;;4899581;29;20423;-58
2024/01/11 11:12:57;;;;;;;32.00;24.43;;;8.80;50.90;;;;;;4899521;29;20411;-58
2024/01/11 11:15:24;;;;;;;32.33;24.90;;;8.70;51.80;;;;;;4881779;29;20451;-59
2024/01/11 11:17:50;;;;;;;34.53;24.97;;;8.60;51.60;;;;;;4882133;29;20422;-58
2024/01/11 11:20:16;;;;;;;29.13;24.63;;;8.60;51.80;;;;;;4896641;29;20465;-59
2024/01/11 11:22:43;;;;;;;34.30;24.57;;;8.50;51.30;;;;;;4866673;29;20423;-58
2024/01/11 11:25:10;;;;;;;28.50;22.43;;;8.30;51.30;;;;;;4866086;29;20427;-60
2024/01/11 11:27:37;;;;;;;33.37;24.30;;;8.20;51.70;;;;;;4899468;29;20904;-60
2024/01/11 11:30:05;;;;;;;30.73;24.87;;;8.20;51.50;;;;;;4898614;29;20415;-60
2024/01/11 11:32:36;;;;;;;28.87;24.00;;;8.10;51.20;;;;;;4899078;29;20414;-60
2024/01/11 11:35:02;;;;;;;34.47;23.80;;;8.10;51.80;;;;;;4898517;29;20511;-60
2024/01/11 11:37:31;;;;;;;33.70;25.50;;;8.20;51.60;;;;;;4898957;29;20447;-60
2024/01/11 11:39:59;;;;;;;33.13;25.20;;;8.20;51.70;;;;;;4898952;29;20459;-61
2024/01/11 11:42:25;;;;;;;32.07;23.33;;;8.20;51.30;;;;;;4898901;29;20416;-60
2024/01/11 11:44:52;;;;;;;33.50;23.20;;;8.20;50.60;;;;;;4898364;29;20412;-60
2024/01/11 11:47:22;;;;;;;29.03;22.30;;;8.20;51.80;;;;;;4898196;29;20840;-60
2024/01/11 11:50:07;;;;;;;32.30;24.17;;;8.40;51.50;;;;;;4897168;29;20439;-60
2024/01/11 11:52:35;;;;;;;33.40;23.37;;;8.40;50.90;;;;;;4897839;29;20427;-60
2024/01/11 11:55:01;;;;;;;34.80;23.87;;;8.50;50.40;;;;;;4895565;29;20448;-60
2024/01/11 11:57:28;;;;;;;33.33;23.23;;;8.50;50.50;;;;;;4881345;29;20476;-60
2024/01/11 12:00:05;;;;;;;27.90;21.90;;;8.60;50.80;;;;;;4881514;29;20872;-59
2024/01/11 12:02:31;;;;;;;33.43;23.13;;;8.70;51.00;;;;;;4898647;29;20421;-59
2024/01/11 12:04:57;;;;;;;31.37;21.97;;;8.70;51.20;;;;;;4881878;29;20424;-59
2024/01/11 12:07:23;;;;;;;32.87;24.60;;;8.70;51.00;;;;;;4897881;29;20900;-59
2024/01/11 12:09:50;;;;;;;40.97;24.63;;;8.70;52.10;;;;;;4898421;29;20806;-59
2024/01/11 12:12:20;;;;;;;32.77;24.53;;;8.60;52.80;;;;;;4897789;29;20229;-59
2024/01/11 12:14:47;;;;;;;34.83;25.13;;;8.60;54.70;;;;;;4898657;29;20394;-59
2024/01/11 12:17:13;;;;;;;34.67;25.23;;;8.60;54.20;;;;;;4897793;29;20411;-59
2024/01/11 12:19:39;;;;;;;33.03;25.23;;;8.50;55.00;;;;;;4897188;29;20798;-59
2024/01/11 12:22:05;;;;;;;32.50;24.70;;;8.60;54.90;;;;;;4897650;29;20187;-59
2024/01/11 12:24:32;;;;;;;37.60;26.87;;;8.60;53.80;;;;;;4897942;29;20514;-59
2024/01/11 12:27:00;;;;;;;35.40;25.63;;;8.60;54.30;;;;;;4897948;29;20932;-59